Terminal Aerodrome Forecast
Issued by NWS

Home | Current Version | Previous Version | Text Only | Print | Product List | Glossary On
Versions: 1 2 3 4 5 6 7 8 9 10 11 12 13
000
FTUS44 KEWX 250500
TAFSSF
TAF
KSSF 250521Z 2506/2606 27004KT P6SM SCT250
     FM251000 31002KT P6SM SCT250
     FM251800 34008G18KT P6SM SCT250=

USA.gov is the U.S. government's official web portal to all federal, state and local government web resources and services.